| time (UTC) | temp C | wind direction | speed KPH | gust KPH | rain 1hr cm | rain 24hr cm | rain mn cm | humidity % | barometer mb |
| 20260507151528 | 13 | 11 | 11.3 | 22.5 | 0.08 | 1.35 | 1.35 | 87 | 1011.4 |
| 20260507151028 | 13 | 58 | 19.3 | 22.5 | 0.10 | 1.35 | 1.35 | 87 | 1011.2 |
| 20260507150528 | 13 | 51 | 11.3 | 22.5 | 0.10 | 1.35 | 1.35 | 88 | 1011.2 |
| 20260507150028 | 13 | 54 | 11.3 | 22.5 | 0.08 | 1.32 | 1.32 | 88 | 1011.2 |
| 20260507145527 | 13 | 34 | 12.9 | 20.9 | 0.08 | 1.32 | 1.32 | 90 | 1011.5 |
| 20260507145028 | 13 | 23 | 6.4 | 20.9 | 0.08 | 1.32 | 1.32 | 90 | 1011.5 |
| 20260507144528 | 13 | 24 | 8.0 | 20.9 | 0.08 | 1.32 | 1.32 | 90 | 1011.5 |
| 20260507144028 | 13 | 46 | 11.3 | 20.9 | 0.08 | 1.32 | 1.32 | 90 | 1011.2 |
| 20260507143528 | 13 | 46 | 8.0 | 22.5 | 0.08 | 1.32 | 1.32 | 89 | 1011.2 |
| 20260507143028 | 13 | 39 | 8.0 | 22.5 | 0.05 | 1.30 | 1.30 | 89 | 1011.2 |
| 20260507142027 | 13 | 41 | 11.3 | 27.4 | 0.03 | 1.27 | 1.27 | 88 | 1011.7 |
| 20260507141527 | 13 | 6 | 19.3 | 24.1 | 0.03 | 1.27 | 1.27 | 88 | 1011.7 |
| 20260507141027 | 13 | 28 | 16.1 | 24.1 | 0.00 | 1.24 | 1.24 | 86 | 1011.2 |
| 20260507140527 | 14 | 60 | 12.9 | 25.7 | 0.00 | 1.24 | 1.24 | 87 | 1011.2 |
| 20260507140027 | 14 | 55 | 12.9 | 25.7 | 0.00 | 1.24 | 1.24 | 87 | 1011.2 |
| 20260507135528 | 14 | 1 | 19.3 | 29.0 | 0.00 | 1.24 | 1.24 | 86 | 1011.2 |
| 20260507134027 | 14 | 25 | 17.7 | 20.9 | 0.00 | 1.24 | 1.24 | 88 | 1011.2 |
| 20260507133528 | 14 | 23 | 12.9 | 25.7 | 0.00 | 1.24 | 1.24 | 88 | 1011.2 |
| 20260507133027 | 14 | 24 | 16.1 | 25.7 | 0.03 | 1.24 | 1.24 | 88 | 1011.2 |
| 20260507132527 | 14 | 27 | 11.3 | 24.1 | 0.03 | 1.24 | 1.24 | 89 | 1011.2 |
| 20260507132027 | 14 | 26 | 9.7 | 24.1 | 0.03 | 1.24 | 1.24 | 89 | 1011.2 |
| 20260507131527 | 14 | 34 | 16.1 | 24.1 | 0.05 | 1.24 | 1.24 | 89 | 1011.2 |
| 20260507131027 | 14 | 26 | 16.1 | 24.1 | 0.05 | 1.24 | 1.24 | 89 | 1010.7 |
| 20260507130527 | 15 | 50 | 9.7 | 24.1 | 0.05 | 1.24 | 1.24 | 91 | 1010.7 |
| 20260507130027 | 15 | 25 | 14.5 | 25.7 | 0.05 | 1.24 | 1.24 | 92 | 1010.7 |
| 20260507125527 | 15 | 1 | 19.3 | 25.7 | 0.05 | 1.24 | 1.24 | 92 | 1011.1 |
| 20260507125027 | 15 | 41 | 14.5 | 22.5 | 0.05 | 1.24 | 1.24 | 92 | 1011.1 |
| 20260507124527 | 15 | 25 | 11.3 | 24.1 | 0.08 | 1.24 | 1.24 | 93 | 1011.1 |
| 20260507124027 | 15 | 20 | 6.4 | 24.1 | 0.08 | 1.24 | 1.24 | 93 | 1010.7 |
| 20260507123527 | 15 | 38 | 8.0 | 22.5 | 0.10 | 1.24 | 1.24 | 93 | 1010.7 |
| 20260507123027 | 15 | 37 | 16.1 | 19.3 | 0.13 | 1.22 | 1.22 | 93 | 1010.7 |
| 20260507122526 | 15 | 27 | 4.8 | 16.1 | 0.15 | 1.22 | 1.22 | 93 | 1011.2 |
| 20260507122027 | 15 | 25 | 6.4 | 16.1 | 0.18 | 1.22 | 1.22 | 93 | 1011.2 |
| 20260507121527 | 15 | 25 | 6.4 | 20.9 | 0.18 | 1.19 | 1.19 | 93 | 1011.2 |
| 20260507121027 | 15 | 28 | 6.4 | 20.9 | 0.18 | 1.19 | 1.19 | 93 | 1010.9 |
| 20260507120026 | 15 | 37 | 8.0 | 17.7 | 0.23 | 1.19 | 1.19 | 92 | 1010.9 |
| 20260507115526 | 15 | 28 | 8.0 | 17.7 | 0.23 | 1.19 | 1.19 | 92 | 1011.2 |
| 20260507115026 | 15 | 4 | 9.7 | 22.5 | 0.25 | 1.19 | 1.19 | 92 | 1011.2 |
| 20260507114526 | 15 | 35 | 16.1 | 22.5 | 0.28 | 1.17 | 1.17 | 92 | 1011.2 |
| 20260507114026 | 15 | 19 | 12.9 | 17.7 | 0.36 | 1.17 | 1.17 | 92 | 1010.7 |
| 20260507113526 | 15 | 15 | 11.3 | 22.5 | 0.36 | 1.14 | 1.14 | 93 | 1010.7 |
| 20260507112526 | 16 | 29 | 11.3 | 16.1 | 0.33 | 1.07 | 1.07 | 94 | 1010.3 |
| 20260507112026 | 16 | 36 | 11.3 | 20.9 | 0.33 | 1.04 | 1.04 | 94 | 1010.3 |
| 20260507111526 | 16 | 36 | 8.0 | 27.4 | 0.33 | 1.02 | 1.02 | 94 | 1010.3 |
| 20260507111026 | 16 | 64 | 8.0 | 27.4 | 0.38 | 1.02 | 1.02 | 94 | 1010.2 |
| 20260507110526 | 16 | 9 | 12.9 | 22.5 | 0.36 | 0.99 | 0.99 | 94 | 1010.2 |
| 20260507105026 | 17 | 34 | 4.8 | 19.3 | 0.38 | 0.94 | 0.94 | 93 | 1010.0 |
| 20260507104526 | 17 | 42 | 8.0 | 22.5 | 0.36 | 0.89 | 0.89 | 94 | 1010.0 |
| 20260507104026 | 17 | 28 | 8.0 | 27.4 | 0.33 | 0.81 | 0.81 | 93 | 1009.6 |
| 20260507103026 | 19 | 197 | 11.3 | 14.5 | 0.36 | 0.76 | 0.76 | 94 | 1009.6 |
| 20260507102526 | 19 | 203 | 0.0 | 0.0 | 0.41 | 0.74 | 0.74 | 94 | 1009.2 |
| 20260507102026 | 19 | 203 | 0.0 | 8.0 | 0.48 | 0.71 | 0.71 | 94 | 1009.2 |
| 20260507101526 | 19 | 203 | 0.0 | 8.0 | 0.46 | 0.69 | 0.69 | 94 | 1009.2 |
| 20260507101026 | 19 | 203 | 0.0 | 0.0 | 0.41 | 0.64 | 0.64 | 94 | 1009.1 |
| 20260507100026 | 19 | 203 | 0.0 | 4.8 | 0.41 | 0.64 | 0.64 | 94 | 1009.1 |
| 20260507094526 | 20 | 203 | 0.0 | 9.7 | 0.30 | 0.53 | 0.53 | 94 | 1009.1 |
| 20260507094026 | 20 | 203 | 0.0 | 6.4 | 0.25 | 0.48 | 0.48 | 93 | 1009.0 |
| 20260507093026 | 20 | 203 | 0.0 | 8.0 | 0.18 | 0.41 | 0.41 | 93 | 1009.0 |
| 20260507092526 | 20 | 203 | 4.8 | 8.0 | 0.10 | 0.33 | 0.33 | 93 | 1009.1 |
| 20260507091025 | 20 | 203 | 1.6 | 11.3 | 0.00 | 0.23 | 0.23 | 93 | 1008.3 |
| 20260507090526 | 20 | 203 | 4.8 | 11.3 | 0.00 | 0.23 | 0.23 | 93 | 1008.3 |
| 20260507090026 | 20 | 203 | 4.8 | 8.0 | 0.00 | 0.23 | 0.23 | 93 | 1008.3 |
| 20260507085525 | 20 | 203 | 4.8 | 6.4 | 0.00 | 0.23 | 0.23 | 93 | 1008.6 |
| 20260507085025 | 20 | 203 | 0.0 | 9.7 | 0.03 | 0.23 | 0.23 | 93 | 1008.6 |
| 20260507084525 | 20 | 203 | 0.0 | 9.7 | 0.03 | 0.23 | 0.23 | 93 | 1008.6 |
| 20260507084025 | 20 | 202 | 4.8 | 14.5 | 0.03 | 0.23 | 0.23 | 93 | 1008.6 |
| 20260507083526 | 20 | 202 | 4.8 | 16.1 | 0.03 | 0.23 | 0.23 | 92 | 1008.6 |
| 20260507083025 | 20 | 200 | 4.8 | 17.7 | 0.03 | 0.23 | 0.23 | 92 | 1008.6 |
| 20260507082525 | 20 | 201 | 9.7 | 17.7 | 0.03 | 0.23 | 0.23 | 92 | 1008.5 |
| 20260507082025 | 20 | 199 | 9.7 | 16.1 | 0.03 | 0.23 | 0.23 | 92 | 1008.5 |
| 20260507081525 | 20 | 199 | 16.1 | 16.1 | 0.03 | 0.23 | 0.23 | 92 | 1008.5 |
| 20260507081025 | 20 | 198 | 11.3 | 24.1 | 0.03 | 0.23 | 0.23 | 92 | 1008.6 |
| 20260507080526 | 20 | 197 | 4.8 | 24.1 | 0.03 | 0.23 | 0.23 | 92 | 1008.6 |
| 20260507080025 | 20 | 219 | 19.3 | 19.3 | 0.03 | 0.23 | 0.23 | 92 | 1008.6 |
| 20260507075025 | 20 | 236 | 3.2 | 9.7 | 0.00 | 0.20 | 0.20 | 92 | 1009.0 |
| 20260507074525 | 20 | 236 | 4.8 | 11.3 | 0.00 | 0.20 | 0.20 | 92 | 1009.0 |
| 20260507074025 | 20 | 236 | 8.0 | 14.5 | 0.00 | 0.20 | 0.20 | 92 | 1009.0 |
| 20260507073025 | 20 | 236 | 12.9 | 16.1 | 0.00 | 0.20 | 0.20 | 92 | 1009.0 |
| 20260507072525 | 20 | 229 | 4.8 | 17.7 | 0.00 | 0.20 | 0.20 | 92 | 1008.6 |
| 20260507072024 | 20 | 224 | 11.3 | 17.7 | 0.03 | 0.20 | 0.20 | 93 | 1008.6 |
| 20260507071524 | 20 | 205 | 6.4 | 17.7 | 0.05 | 0.20 | 0.20 | 93 | 1008.6 |
| 20260507071025 | 20 | 205 | 9.7 | 17.7 | 0.08 | 0.20 | 0.20 | 93 | 1008.8 |
| 20260507070525 | 20 | 201 | 6.4 | 16.1 | 0.08 | 0.20 | 0.20 | 93 | 1008.8 |
| 20260507070024 | 20 | 203 | 9.7 | 16.1 | 0.10 | 0.20 | 0.20 | 93 | 1008.8 |
| 20260507065524 | 20 | 208 | 8.0 | 14.5 | 0.10 | 0.20 | 0.20 | 93 | 1008.6 |
| 20260507064525 | 20 | 207 | 6.4 | 16.1 | 0.13 | 0.20 | 0.20 | 93 | 1008.6 |
| 20260507063524 | 20 | 209 | 1.6 | 16.1 | 0.13 | 0.20 | 0.20 | 92 | 1008.8 |
| 20260507063024 | 20 | 211 | 6.4 | 9.7 | 0.13 | 0.20 | 0.20 | 92 | 1008.8 |
| 20260507062024 | 20 | 211 | 0.0 | 11.3 | 0.10 | 0.18 | 0.18 | 91 | 1008.7 |
| 20260507060024 | 20 | 212 | 14.5 | 14.5 | 0.05 | 0.10 | 0.10 | 91 | 1009.6 |
| 20260507055024 | 20 | 212 | 6.4 | 11.3 | 0.08 | 0.10 | 0.10 | 90 | 1010.0 |
| 20260507054524 | 20 | 212 | 4.8 | 11.3 | 0.05 | 0.08 | 0.08 | 90 | 1010.0 |
| 20260507054024 | 20 | 214 | 6.4 | 11.3 | 0.08 | 0.08 | 0.08 | 90 | 1010.0 |
| 20260507052524 | 20 | 211 | 3.2 | 11.3 | 0.08 | 0.08 | 0.08 | 89 | 1010.2 |
| 20260507052024 | 20 | 211 | 8.0 | 11.3 | 0.08 | 0.08 | 0.08 | 89 | 1010.2 |
| 20260507051025 | 20 | 213 | 3.2 | 11.3 | 0.05 | 0.05 | 0.05 | 88 | 1010.2 |
| 20260507050523 | 20 | 212 | 1.6 | 11.3 | 0.05 | 0.05 | 0.05 | 88 | 1010.2 |
| 20260507050024 | 20 | 209 | 0.0 | 8.0 | 0.05 | 0.05 | 0.05 | 87 | 1010.2 |
| 20260507045524 | 20 | 209 | 0.0 | 6.4 | 0.03 | 0.03 | 0.03 | 86 | 1009.7 |
| 20260507044524 | 21 | 209 | 1.6 | 9.7 | 0.03 | 0.03 | 0.03 | 85 | 1009.7 |
| 20260507044023 | 21 | 208 | 1.6 | 8.0 | 0.00 | 0.00 | 0.00 | 84 | 1009.9 |
| 20260507043523 | 21 | 209 | 0.0 | 9.7 | 0.00 | 0.00 | 0.00 | 82 | 1009.9 |
| 20260507043023 | 21 | 208 | 4.8 | 11.3 | 0.00 | 0.00 | 0.00 | 81 | 1009.9 |
| 20260507042524 | 21 | 208 | 1.6 | 14.5 | 0.00 | 0.00 | 0.00 | 80 | 1010.0 |
| 20260507041023 | 21 | 208 | 0.0 | 8.0 | 0.00 | 0.00 | 0.00 | 79 | 1010.0 |
| 20260507040523 | 21 | 207 | 4.8 | 9.7 | 0.00 | 0.00 | 0.00 | 79 | 1010.0 |
| 20260507040053 | 21 | 207 | 4.8 | 9.7 | 0.00 | 0.00 | 0.00 | 78 | 1010.0 |
| 20260507035524 | 22 | 208 | 1.6 | 6.4 | 0.00 | 0.00 | 0.00 | 78 | 1009.9 |
| 20260507035024 | 22 | 208 | 1.6 | 6.4 | 0.00 | 0.00 | 0.00 | 78 | 1009.9 |
| 20260507034523 | 22 | 208 | 3.2 | 9.7 | 0.00 | 0.00 | 0.00 | 78 | 1009.9 |
| 20260507033023 | 22 | 208 | 8.0 | 11.3 | 0.00 | 0.00 | 0.00 | 77 | 1009.8 |
| 20260507032523 | 22 | 208 | 3.2 | 11.3 | 0.00 | 0.00 | 0.00 | 77 | 1009.7 |
| 20260507032023 | 22 | 207 | 3.2 | 11.3 | 0.00 | 0.00 | 0.00 | 77 | 1009.7 |
| 20260507031023 | 22 | 208 | 3.2 | 17.7 | 0.00 | 0.00 | 0.00 | 77 | 1009.6 |
| 20260507030523 | 22 | 209 | 9.7 | 17.7 | 0.00 | 0.00 | 0.00 | 77 | 1009.6 |
| 20260507025523 | 22 | 217 | 8.0 | 16.1 | 0.00 | 0.00 | 0.00 | 76 | 1009.8 |
| 20260507025023 | 22 | 217 | 4.8 | 16.1 | 0.00 | 0.00 | 0.00 | 76 | 1009.8 |
| 20260507024023 | 22 | 220 | 4.8 | 14.5 | 0.00 | 0.00 | 0.00 | 76 | 1009.9 |
| 20260507023523 | 22 | 221 | 4.8 | 14.5 | 0.00 | 0.00 | 0.00 | 76 | 1009.9 |
| 20260507023023 | 22 | 221 | 3.2 | 16.1 | 0.00 | 0.00 | 0.00 | 76 | 1009.9 |
| 20260507021522 | 22 | 226 | 1.6 | 14.5 | 0.00 | 0.00 | 0.00 | 75 | 1010.1 |
| 20260507021023 | 22 | 227 | 6.4 | 14.5 | 0.00 | 0.00 | 0.00 | 75 | 1010.1 |
| 20260507020523 | 22 | 226 | 0.0 | 16.1 | 0.00 | 0.00 | 0.00 | 75 | 1010.1 |
| 20260507020022 | 22 | 226 | 0.0 | 16.1 | 0.00 | 0.00 | 0.00 | 75 | 1010.1 |
| 20260507015523 | 22 | 232 | 3.2 | 11.3 | 0.00 | 0.00 | 0.00 | 75 | 1010.2 |
| 20260507015022 | 22 | 235 | 6.4 | 17.7 | 0.00 | 0.00 | 0.00 | 75 | 1010.2 |
| 20260507014523 | 22 | 227 | 8.0 | 17.7 | 0.00 | 0.00 | 0.00 | 75 | 1010.2 |
| 20260507014023 | 22 | 223 | 3.2 | 9.7 | 0.00 | 0.00 | 0.00 | 74 | 1010.1 |
| 20260507012022 | 22 | 222 | 3.2 | 9.7 | 0.00 | 0.00 | 0.00 | 74 | 1009.9 |
| 20260507011022 | 22 | 222 | 6.4 | 8.0 | 0.00 | 0.00 | 0.00 | 73 | 1010.1 |
| 20260507010522 | 22 | 222 | 1.6 | 6.4 | 0.00 | 0.00 | 0.00 | 73 | 1010.1 |
| 20260507010022 | 23 | 222 | 0.0 | 8.0 | 0.00 | 0.00 | 0.00 | 73 | 1010.1 |
| 20260507005522 | 23 | 222 | 0.0 | 8.0 | 0.00 | 0.00 | 0.00 | 72 | 1010.2 |
| 20260507004522 | 23 | 223 | 4.8 | 8.0 | 0.00 | 0.00 | 0.00 | 72 | 1010.2 |
| 20260507004022 | 23 | 222 | 3.2 | 8.0 | 0.00 | 0.00 | 0.00 | 71 | 1010.1 |
| 20260507003522 | 23 | 223 | 1.6 | 9.7 | 0.00 | 0.00 | 0.00 | 71 | 1010.1 |
| 20260507003022 | 23 | 223 | 0.0 | 14.5 | 0.00 | 0.00 | 0.00 | 70 | 1010.1 |
| 20260507002522 | 23 | 223 | 3.2 | 14.5 | 0.00 | 0.00 | 0.00 | 70 | 1010.0 |
| 20260507002022 | 23 | 223 | 3.2 | 11.3 | 0.00 | 0.00 | 0.00 | 70 | 1010.0 |
| 20260507001522 | 23 | 224 | 0.0 | 8.0 | 0.00 | 0.00 | 0.00 | 70 | 1010.0 |
| 20260507001023 | 23 | 224 | 0.0 | 16.1 | 0.00 | 0.00 | 0.00 | 69 | 1009.8 |
| 20260507000023 | 23 | 223 | 8.0 | 14.5 | 0.00 | 0.00 | 0.00 | 69 | 1009.8 |
| 20260506235022 | 24 | 226 | 1.6 | 11.3 | 0.00 | 0.00 | 0.00 | 68 | 1009.6 |
| 20260506234522 | 24 | 228 | 4.8 | 16.1 | 0.00 | 0.00 | 0.00 | 68 | 1009.6 |
| 20260506234022 | 24 | 229 | 3.2 | 16.1 | 0.00 | 0.00 | 0.00 | 67 | 1009.6 |
| 20260506233522 | 24 | 237 | 4.8 | 16.1 | 0.00 | 0.00 | 0.00 | 67 | 1009.6 |
| 20260506232522 | 24 | 233 | 4.8 | 19.3 | 0.00 | 0.00 | 0.00 | 67 | 1009.4 |
| 20260506232022 | 24 | 230 | 1.6 | 19.3 | 0.00 | 0.00 | 0.00 | 66 | 1009.4 |
| 20260506231022 | 24 | 245 | 4.8 | 16.1 | 0.00 | 0.00 | 0.00 | 66 | 1009.4 |
| 20260506230522 | 24 | 248 | 1.6 | 16.1 | 0.00 | 0.00 | 0.00 | 66 | 1009.4 |
| 20260506225522 | 25 | 231 | 4.8 | 24.1 | 0.00 | 0.00 | 0.00 | 66 | 1009.4 |
| 20260506225022 | 25 | 228 | 24.1 | 24.1 | 0.00 | 0.00 | 0.00 | 66 | 1009.4 |
| 20260506224522 | 25 | 229 | 9.7 | 17.7 | 0.00 | 0.00 | 0.00 | 66 | 1009.4 |
| 20260506223522 | 25 | 234 | 9.7 | 16.1 | 0.00 | 0.00 | 0.00 | 65 | 1009.6 |
| 20260506223021 | 25 | 227 | 4.8 | 16.1 | 0.00 | 0.00 | 0.00 | 66 | 1009.6 |
| 20260506222522 | 25 | 219 | 6.4 | 16.1 | 0.00 | 0.00 | 0.00 | 65 | 1009.6 |
| 20260506221521 | 25 | 214 | 3.2 | 11.3 | 0.00 | 0.00 | 0.00 | 66 | 1009.6 |
| 20260506221021 | 25 | 213 | 3.2 | 11.3 | 0.00 | 0.00 | 0.00 | 66 | 1009.4 |
| 20260506220521 | 25 | 210 | 4.8 | 12.9 | 0.00 | 0.00 | 0.00 | 66 | 1009.4 |
| 20260506220021 | 25 | 210 | 4.8 | 16.1 | 0.00 | 0.00 | 0.00 | 65 | 1009.4 |
| 20260506215521 | 25 | 204 | 9.7 | 16.1 | 0.00 | 0.00 | 0.00 | 66 | 1009.1 |
| 20260506215021 | 25 | 212 | 0.0 | 17.7 | 0.00 | 0.00 | 0.00 | 66 | 1009.1 |
| 20260506214521 | 25 | 214 | 9.7 | 17.7 | 0.00 | 0.00 | 0.00 | 65 | 1009.1 |
| 20260506214021 | 25 | 213 | 4.8 | 16.1 | 0.00 | 0.00 | 0.00 | 65 | 1009.4 |
| 20260506213521 | 25 | 226 | 3.2 | 19.3 | 0.00 | 0.00 | 0.00 | 65 | 1009.4 |
| 20260506213021 | 25 | 185 | 0.0 | 22.5 | 0.00 | 0.00 | 0.00 | 65 | 1009.4 |
| 20260506212521 | 25 | 209 | 11.3 | 22.5 | 0.00 | 0.00 | 0.00 | 65 | 1009.4 |
| 20260506212021 | 25 | 221 | 9.7 | 19.3 | 0.00 | 0.00 | 0.00 | 65 | 1009.4 |
| 20260506211521 | 25 | 228 | 9.7 | 16.1 | 0.00 | 0.00 | 0.00 | 65 | 1009.4 |
| 20260506211021 | 25 | 227 | 8.0 | 17.7 | 0.00 | 0.00 | 0.00 | 65 | 1008.8 |
| 20260506210521 | 25 | 259 | 4.8 | 24.1 | 0.00 | 0.00 | 0.00 | 65 | 1008.8 |
| 20260506210021 | 25 | 269 | 8.0 | 27.4 | 0.00 | 0.00 | 0.00 | 64 | 1008.8 |
| 20260506205521 | 25 | 230 | 8.0 | 38.6 | 0.00 | 0.00 | 0.00 | 64 | 1008.8 |
| 20260506205021 | 25 | 226 | 16.1 | 38.6 | 0.00 | 0.00 | 0.00 | 64 | 1008.8 |
| 20260506204521 | 25 | 219 | 16.1 | 30.6 | 0.00 | 0.00 | 0.00 | 64 | 1008.8 |
| 20260506204021 | 25 | 209 | 11.3 | 30.6 | 0.00 | 0.00 | 0.00 | 64 | 1008.8 |
| 20260506203521 | 25 | 210 | 12.9 | 25.7 | 0.00 | 0.00 | 0.00 | 64 | 1008.8 |
| 20260506203021 | 25 | 210 | 12.9 | 30.6 | 0.00 | 0.00 | 0.00 | 64 | 1008.8 |
| 20260506202520 | 25 | 220 | 4.8 | 30.6 | 0.00 | 0.00 | 0.00 | 65 | 1009.1 |
| 20260506202021 | 25 | 189 | 17.7 | 29.0 | 0.00 | 0.00 | 0.00 | 65 | 1009.1 |
| 20260506201521 | 25 | 209 | 17.7 | 37.0 | 0.00 | 0.00 | 0.00 | 65 | 1009.1 |
| 20260506201020 | 25 | 207 | 16.1 | 37.0 | 0.00 | 0.00 | 0.00 | 65 | 1009.5 |
| 20260506200521 | 25 | 170 | 16.1 | 35.4 | 0.00 | 0.00 | 0.00 | 66 | 1009.5 |
| 20260506200020 | 25 | 200 | 16.1 | 35.4 | 0.00 | 0.00 | 0.00 | 66 | 1009.5 |
| 20260506195520 | 24 | 202 | 24.1 | 27.4 | 0.00 | 0.00 | 0.00 | 68 | 1009.9 |
| 20260506195020 | 24 | 214 | 8.0 | 27.4 | 0.00 | 0.00 | 0.00 | 69 | 1009.9 |
| 20260506194520 | 23 | 191 | 0.0 | 22.5 | 0.00 | 0.00 | 0.00 | 71 | 1009.9 |
| 20260506194020 | 23 | 202 | 9.7 | 22.5 | 0.00 | 0.00 | 0.00 | 71 | 1010.3 |
| 20260506193520 | 23 | 225 | 17.7 | 20.9 | 0.00 | 0.00 | 0.00 | 72 | 1010.3 |
| 20260506193020 | 23 | 221 | 16.1 | 20.9 | 0.00 | 0.00 | 0.00 | 72 | 1010.3 |
| 20260506192520 | 23 | 212 | 6.4 | 22.5 | 0.00 | 0.00 | 0.00 | 72 | 1010.7 |
| 20260506192020 | 23 | 213 | 8.0 | 25.7 | 0.00 | 0.00 | 0.00 | 72 | 1010.7 |
| 20260506191520 | 23 | 238 | 8.0 | 25.7 | 0.00 | 0.00 | 0.00 | 71 | 1010.7 |
| 20260506191020 | 23 | 201 | 19.3 | 30.6 | 0.00 | 0.00 | 0.00 | 71 | 1011.0 |
| 20260506190520 | 24 | 201 | 6.4 | 30.6 | 0.00 | 0.00 | 0.00 | 71 | 1011.0 |
| 20260506190020 | 24 | 217 | 29.0 | 29.0 | 0.00 | 0.00 | 0.00 | 69 | 1011.0 |
| 20260506185520 | 24 | 185 | 8.0 | 27.4 | 0.00 | 0.00 | 0.00 | 69 | 1011.1 |
| 20260506185020 | 24 | 190 | 12.9 | 27.4 | 0.00 | 0.00 | 0.00 | 69 | 1011.1 |
| 20260506184519 | 24 | 200 | 8.0 | 24.1 | 0.00 | 0.00 | 0.00 | 70 | 1011.1 |
| 20260506184020 | 24 | 200 | 17.7 | 25.7 | 0.00 | 0.00 | 0.00 | 70 | 1011.2 |
| 20260506183521 | 24 | 175 | 17.7 | 30.6 | 0.00 | 0.00 | 0.00 | 69 | 1011.2 |
| 20260506183020 | 24 | 179 | 12.9 | 37.0 | 0.00 | 0.00 | 0.00 | 69 | 1011.2 |
| 20260506182020 | 24 | 212 | 14.5 | 38.6 | 0.00 | 0.00 | 0.00 | 70 | 1011.2 |
| 20260506181520 | 23 | 243 | 9.7 | 27.4 | 0.00 | 0.00 | 0.00 | 70 | 1011.2 |
| 20260506180519 | 23 | 238 | 14.5 | 27.4 | 0.00 | 0.00 | 0.00 | 71 | 1011.1 |
| 20260506180050 | 23 | 184 | 8.0 | 22.5 | 0.00 | 0.00 | 0.00 | 71 | 1011.1 |
| 20260506175519 | 23 | 194 | 20.9 | 22.5 | 0.00 | 0.00 | 0.00 | 71 | 1011.4 |
| 20260506175019 | 23 | 175 | 8.0 | 29.0 | 0.00 | 0.00 | 0.00 | 72 | 1011.4 |
| 20260506174019 | 22 | 163 | 8.0 | 29.0 | 0.00 | 0.00 | 0.00 | 73 | 1011.6 |
| 20260506173519 | 22 | 210 | 11.3 | 30.6 | 0.00 | 0.00 | 0.00 | 72 | 1011.6 |
| 20260506173019 | 22 | 192 | 16.1 | 30.6 | 0.00 | 0.00 | 0.00 | 73 | 1011.6 |
| 20260506172519 | 22 | 185 | 8.0 | 22.5 | 0.00 | 0.00 | 0.00 | 73 | 1011.8 |
| 20260506172020 | 22 | 201 | 4.8 | 32.2 | 0.00 | 0.00 | 0.00 | 74 | 1011.8 |
| 20260506170519 | 22 | 300 | 1.6 | 40.2 | 0.00 | 0.00 | 0.00 | 73 | 1012.3 |
| 20260506165019 | 22 | 219 | 9.7 | 30.6 | 0.00 | 0.00 | 0.00 | 74 | 1012.4 |
| 20260506164519 | 22 | 225 | 25.7 | 30.6 | 0.00 | 0.00 | 0.00 | 74 | 1012.4 |
| 20260506164019 | 22 | 191 | 9.7 | 24.1 | 0.00 | 0.00 | 0.00 | 74 | 1012.4 |
| 20260506163519 | 22 | 229 | 19.3 | 30.6 | 0.00 | 0.00 | 0.00 | 75 | 1012.4 |
| 20260506163019 | 21 | 187 | 16.1 | 30.6 | 0.00 | 0.00 | 0.00 | 75 | 1012.4 |
| 20260506162519 | 21 | 219 | 9.7 | 27.4 | 0.00 | 0.00 | 0.00 | 74 | 1012.6 |
| 20260506162019 | 21 | 220 | 12.9 | 27.4 | 0.00 | 0.00 | 0.00 | 74 | 1012.6 |
| 20260506161519 | 21 | 171 | 8.0 | 27.4 | 0.00 | 0.00 | 0.00 | 75 | 1012.6 |
| 20260506161019 | 21 | 180 | 4.8 | 27.4 | 0.00 | 0.00 | 0.00 | 75 | 1012.8 |
| 20260506160519 | 21 | 215 | 16.1 | 25.7 | 0.00 | 0.00 | 0.00 | 74 | 1012.8 |
| 20260506160019 | 21 | 181 | 8.0 | 25.7 | 0.00 | 0.00 | 0.00 | 74 | 1012.8 |
| 20260506155520 | 21 | 197 | 16.1 | 33.8 | 0.00 | 0.00 | 0.00 | 75 | 1013.2 |
| 20260506155019 | 21 | 169 | 17.7 | 33.8 | 0.00 | 0.00 | 0.00 | 75 | 1013.2 |
| 20260506154519 | 21 | 240 | 14.5 | 25.7 | 0.00 | 0.00 | 0.00 | 75 | 1013.2 |
| 20260506154019 | 21 | 184 | 17.7 | 27.4 | 0.00 | 0.00 | 0.00 | 75 | 1013.2 |
| 20260506153519 | 21 | 204 | 20.9 | 32.2 | 0.00 | 0.00 | 0.00 | 75 | 1013.2 |
| 20260506153019 | 21 | 210 | 17.7 | 33.8 | 0.00 | 0.00 | 0.00 | 75 | 1013.2 |
| 20260506152019 | 21 | 237 | 16.1 | 27.4 | 0.00 | 0.00 | 0.00 | 74 | 1013.3 |